createdAt,value
2022-10-20T00:00:15.778Z,54.79
2022-10-20T00:01:15.771Z,57.36
2022-10-20T00:02:15.831Z,55.43
2022-10-20T00:03:15.759Z,56.07
2022-10-20T00:04:15.752Z,53.33
2022-10-20T00:05:15.743Z,57.69
2022-10-20T00:06:15.730Z,55.43
2022-10-20T00:07:15.756Z,55.43
2022-10-20T00:08:15.723Z,56.56
2022-10-20T00:09:15.710Z,55.11
2022-10-20T00:10:15.701Z,57.04
2022-10-20T00:11:15.701Z,57.36
2022-10-20T00:12:15.699Z,55.27
2022-10-20T00:13:15.690Z,55.43
2022-10-20T00:14:15.670Z,56.24
2022-10-20T00:15:15.661Z,54.46
2022-10-20T00:16:15.650Z,54.30
2022-10-20T00:17:15.643Z,57.04
2022-10-20T00:18:15.649Z,55.91
2022-10-20T00:19:15.628Z,57.52
2022-10-20T00:20:15.723Z,57.69
2022-10-20T00:21:15.613Z,56.07
2022-10-20T00:22:15.609Z,56.56
2022-10-20T00:23:15.638Z,58.17
2022-10-20T00:24:15.587Z,58.65
2022-10-20T00:25:15.578Z,55.75
2022-10-20T00:26:15.575Z,56.07
2022-10-20T00:27:15.569Z,54.46
2022-10-20T00:28:15.545Z,56.07
2022-10-20T00:29:15.601Z,56.40
2022-10-20T00:30:15.529Z,57.04
2022-10-20T00:31:15.524Z,56.40
2022-10-20T00:32:15.508Z,56.88
2022-10-20T00:33:15.509Z,57.69
2022-10-20T00:34:15.496Z,56.88
2022-10-20T00:35:15.511Z,58.17
2022-10-20T00:36:15.485Z,55.27
2022-10-20T00:37:15.476Z,55.43
2022-10-20T00:38:15.499Z,56.24
2022-10-20T00:39:15.459Z,54.46
2022-10-20T00:40:15.449Z,56.24
2022-10-20T00:41:15.493Z,55.91
2022-10-20T00:42:15.422Z,57.52
2022-10-20T00:43:15.423Z,57.85
2022-10-20T00:44:15.432Z,58.81
2022-10-20T00:45:15.401Z,63.33
2022-10-20T00:46:15.381Z,58.33
2022-10-20T00:47:15.407Z,56.56
2022-10-20T00:48:15.375Z,56.88
2022-10-20T00:49:15.369Z,56.72
2022-10-20T00:50:15.358Z,57.04
2022-10-20T00:51:15.349Z,59.62
2022-10-20T00:52:15.343Z,56.72
2022-10-20T00:53:15.353Z,58.17
2022-10-20T00:54:15.335Z,57.36
2022-10-20T00:55:15.319Z,56.88
2022-10-20T00:56:15.311Z,59.14
2022-10-20T00:57:15.299Z,56.72
2022-10-20T00:58:15.300Z,56.88
2022-10-20T00:59:15.305Z,56.07
2022-10-20T01:00:15.273Z,56.40
2022-10-20T01:01:15.323Z,60.10
2022-10-20T01:02:15.257Z,59.30
2022-10-20T01:03:15.253Z,58.81
2022-10-20T01:04:15.265Z,58.49
2022-10-20T01:05:15.238Z,55.43
2022-10-20T01:07:15.219Z,54.46
2022-10-20T01:08:15.245Z,56.40
2022-10-20T01:09:15.212Z,57.36
2022-10-20T01:10:15.226Z,56.24
2022-10-20T01:11:15.195Z,58.01
2022-10-20T01:12:15.202Z,56.40
2022-10-20T01:13:15.171Z,57.20
2022-10-20T01:14:15.167Z,55.27
2022-10-20T01:15:15.205Z,56.88
2022-10-20T01:16:15.204Z,59.46
2022-10-20T01:17:15.189Z,58.01
2022-10-20T01:18:15.133Z,57.85
2022-10-20T01:19:15.118Z,57.85
2022-10-20T01:20:15.119Z,57.04
2022-10-20T01:21:15.106Z,56.88
2022-10-20T01:22:15.131Z,59.14
2022-10-20T01:23:15.095Z,55.59
2022-10-20T01:24:15.128Z,56.88
2022-10-20T01:25:15.079Z,56.24
2022-10-20T01:26:15.077Z,56.56
2022-10-20T01:27:15.114Z,56.72
2022-10-20T01:28:15.075Z,60.26
2022-10-20T01:29:15.049Z,57.69
2022-10-20T01:30:15.039Z,60.26
2022-10-20T01:31:15.073Z,57.04
2022-10-20T01:32:15.025Z,56.24
2022-10-20T01:33:15.055Z,57.36
2022-10-20T01:34:15.001Z,58.49
2022-10-20T01:35:15.001Z,55.91
2022-10-20T01:36:15.014Z,55.11
2022-10-20T01:37:28.149Z,58.97
2022-10-20T01:38:15.980Z,58.01
2022-10-20T01:39:14.976Z,58.65
2022-10-20T01:40:14.981Z,56.24
2022-10-20T01:41:14.955Z,59.14
2022-10-20T01:42:14.954Z,56.07
2022-10-20T01:43:14.958Z,55.43
2022-10-20T01:44:14.937Z,59.14
2022-10-20T01:45:14.944Z,58.65
2022-10-20T01:46:14.994Z,62.84
2022-10-20T01:47:14.902Z,59.78
2022-10-20T01:48:14.929Z,59.62
2022-10-20T01:49:14.893Z,55.91
2022-10-20T01:50:14.906Z,57.52
2022-10-20T01:51:14.877Z,58.01
2022-10-20T01:52:14.905Z,56.24
2022-10-20T01:53:14.864Z,55.91
2022-10-20T01:54:14.870Z,56.56
2022-10-20T01:55:14.865Z,54.46
2022-10-20T01:56:14.842Z,55.75
2022-10-20T01:57:14.829Z,56.56
2022-10-20T01:58:14.823Z,55.59
2022-10-20T01:59:14.813Z,56.07
2022-10-20T02:00:14.797Z,56.24
2022-10-20T02:01:14.923Z,58.65
2022-10-20T02:02:14.794Z,57.04
2022-10-20T02:03:14.794Z,58.49
2022-10-20T02:04:14.784Z,60.10
2022-10-20T02:05:14.770Z,58.81
2022-10-20T02:06:14.783Z,58.01
2022-10-20T02:07:14.752Z,58.49
2022-10-20T02:08:14.752Z,57.52
2022-10-20T02:09:14.754Z,58.81
2022-10-20T02:10:14.749Z,58.17
2022-10-20T02:11:14.718Z,58.81
2022-10-20T02:12:14.736Z,56.24
2022-10-20T02:13:14.698Z,56.88
2022-10-20T02:14:14.694Z,59.78
2022-10-20T02:15:14.687Z,58.33
2022-10-20T02:16:14.688Z,58.81
2022-10-20T02:17:14.666Z,59.14
2022-10-20T02:18:14.669Z,59.30
2022-10-20T02:19:14.654Z,59.14
2022-10-20T02:20:14.650Z,56.07
2022-10-20T02:21:14.637Z,56.07
2022-10-20T02:22:14.655Z,59.14
2022-10-20T02:23:14.626Z,61.39
2022-10-20T02:24:14.618Z,57.36
2022-10-20T02:25:14.604Z,54.79
2022-10-20T02:26:14.650Z,57.85
2022-10-20T02:27:14.615Z,57.36
2022-10-20T02:28:14.582Z,58.33
2022-10-20T02:29:14.577Z,61.23
2022-10-20T02:30:14.562Z,57.85
2022-10-20T02:31:14.556Z,57.36
2022-10-20T02:32:14.552Z,62.20
2022-10-20T02:33:14.566Z,60.42
2022-10-20T02:34:14.539Z,58.49
2022-10-20T02:35:14.534Z,58.65
2022-10-20T02:36:14.524Z,60.59
2022-10-20T02:37:14.513Z,60.75
2022-10-20T02:38:14.502Z,60.75
2022-10-20T02:39:14.539Z,63.16
2022-10-20T02:40:14.552Z,60.42
2022-10-20T02:41:14.492Z,61.87
2022-10-20T02:42:14.490Z,59.62
2022-10-20T02:43:14.463Z,62.20
2022-10-20T02:44:14.452Z,58.33
2022-10-20T02:45:14.447Z,60.10
2022-10-20T02:47:14.453Z,61.55
2022-10-20T02:48:14.426Z,59.62
2022-10-20T02:49:14.415Z,60.75
2022-10-20T02:50:14.417Z,57.52
2022-10-20T02:51:14.414Z,59.30
2022-10-20T02:52:14.406Z,60.10
2022-10-20T02:53:14.421Z,63.65
2022-10-20T02:54:14.397Z,59.62
2022-10-20T02:55:14.468Z,59.14
2022-10-20T02:56:14.371Z,56.88
2022-10-20T02:57:14.385Z,55.91
2022-10-20T02:58:14.355Z,58.81
2022-10-20T02:59:14.350Z,61.07
2022-10-20T03:00:14.345Z,58.97
2022-10-20T03:01:14.377Z,59.46
2022-10-20T03:02:14.325Z,58.81
2022-10-20T03:03:14.334Z,58.17
2022-10-20T03:04:14.391Z,60.91
2022-10-20T03:05:14.313Z,58.49
2022-10-20T03:06:14.281Z,60.59
2022-10-20T03:07:14.287Z,58.65
2022-10-20T03:08:14.269Z,58.49
2022-10-20T03:09:14.288Z,58.17
2022-10-20T03:10:14.256Z,59.46
2022-10-20T03:11:14.254Z,63.16
2022-10-20T03:12:14.272Z,58.01
2022-10-20T03:13:14.230Z,57.52
2022-10-20T03:14:14.441Z,60.75
2022-10-20T03:15:14.246Z,59.14
2022-10-20T03:16:14.208Z,59.62
2022-10-20T03:17:14.203Z,60.10
2022-10-20T03:18:14.446Z,63.16
2022-10-20T03:19:14.214Z,59.62
2022-10-20T03:20:14.180Z,62.04
2022-10-20T03:21:14.181Z,60.10
2022-10-20T03:22:14.167Z,63.33
2022-10-20T03:23:16.434Z,59.30
2022-10-20T03:24:15.171Z,60.75
2022-10-20T03:25:14.138Z,61.55
2022-10-20T03:26:14.177Z,61.55
2022-10-20T03:27:14.149Z,61.39
2022-10-20T03:28:14.114Z,63.33
2022-10-20T03:29:14.108Z,62.68
2022-10-20T03:30:14.098Z,61.71
2022-10-20T03:31:14.102Z,63.33
2022-10-20T03:32:14.093Z,59.14
2022-10-20T03:33:14.114Z,61.39
2022-10-20T03:34:14.098Z,61.87
2022-10-20T03:35:14.063Z,61.07
2022-10-20T03:36:14.121Z,65.42
2022-10-20T03:37:14.068Z,65.10
2022-10-20T03:38:14.043Z,63.49
2022-10-20T03:39:14.045Z,64.29
2022-10-20T03:40:14.022Z,62.84
2022-10-20T03:41:14.021Z,61.23
2022-10-20T03:42:14.005Z,61.55
2022-10-20T03:43:13.997Z,63.16
2022-10-20T03:44:13.994Z,60.42
2022-10-20T03:45:17.694Z,62.20
2022-10-20T03:46:13.975Z,60.26
2022-10-20T03:47:13.977Z,63.00
2022-10-20T03:48:13.966Z,60.59
2022-10-20T03:49:13.967Z,61.71
2022-10-20T03:50:13.949Z,57.69
2022-10-20T03:51:14.022Z,58.01
2022-10-20T03:52:13.938Z,59.62
2022-10-20T03:53:13.920Z,60.10
2022-10-20T03:54:13.917Z,60.59
2022-10-20T03:55:13.907Z,58.33
2022-10-20T03:56:13.920Z,59.62
2022-10-20T03:57:13.911Z,60.26
2022-10-20T03:58:13.907Z,58.65
2022-10-20T03:59:13.888Z,58.97
2022-10-20T04:00:13.881Z,59.46
2022-10-20T04:01:13.910Z,59.94
2022-10-20T04:02:13.853Z,58.01
2022-10-20T04:03:13.851Z,60.59
2022-10-20T04:04:13.861Z,60.75
2022-10-20T04:05:13.820Z,58.49
2022-10-20T04:06:13.824Z,58.01
2022-10-20T04:07:13.808Z,61.23
2022-10-20T04:09:13.869Z,59.78
2022-10-20T04:10:13.819Z,60.42
2022-10-20T04:11:13.776Z,60.26
2022-10-20T04:12:13.777Z,58.81
2022-10-20T04:13:13.760Z,58.81
2022-10-20T04:14:13.768Z,61.07
2022-10-20T04:15:13.748Z,60.26
2022-10-20T04:16:13.778Z,58.97
2022-10-20T04:17:13.724Z,61.23
2022-10-20T04:18:13.724Z,58.01
2022-10-20T04:19:13.736Z,59.78
2022-10-20T04:20:13.704Z,58.97
2022-10-20T04:21:13.700Z,63.49
2022-10-20T04:22:13.816Z,60.10
2022-10-20T04:23:13.679Z,64.13
2022-10-20T04:24:13.687Z,59.14
2022-10-20T04:25:13.665Z,58.33
2022-10-20T04:26:13.668Z,63.81
2022-10-20T04:27:13.654Z,63.65
2022-10-20T04:28:13.674Z,62.52
2022-10-20T04:29:13.638Z,63.33
2022-10-20T04:30:13.673Z,61.23
2022-10-20T04:31:13.619Z,59.78
2022-10-20T04:32:13.602Z,62.52
2022-10-20T04:33:13.623Z,61.55
2022-10-20T04:34:13.583Z,59.62
2022-10-20T04:35:13.597Z,62.36
2022-10-20T04:36:13.598Z,61.71
2022-10-20T04:37:13.574Z,62.52
2022-10-20T04:38:13.578Z,61.39
2022-10-20T04:39:13.551Z,58.01
2022-10-20T04:40:13.543Z,59.94
2022-10-20T04:41:13.557Z,59.94
2022-10-20T04:42:13.533Z,61.07
2022-10-20T04:43:13.543Z,59.62
2022-10-20T04:44:13.517Z,63.49
2022-10-20T04:45:13.502Z,63.33
2022-10-20T04:46:13.534Z,62.04
2022-10-20T04:47:13.489Z,60.10
2022-10-20T04:48:13.500Z,61.87
2022-10-20T04:49:13.492Z,63.49
2022-10-20T04:50:13.458Z,61.23
2022-10-20T04:51:13.445Z,64.29
2022-10-20T04:52:13.444Z,63.97
2022-10-20T04:53:13.437Z,64.61
2022-10-20T04:54:13.431Z,62.20
2022-10-20T04:55:13.468Z,60.26
2022-10-20T04:56:13.420Z,61.07
2022-10-20T04:57:13.410Z,63.81
2022-10-20T04:58:13.404Z,63.16
2022-10-20T04:59:13.848Z,64.45
2022-10-20T05:00:13.387Z,63.16
2022-10-20T05:01:13.456Z,66.87
2022-10-20T05:02:13.442Z,66.87
2022-10-20T05:03:13.360Z,64.45
2022-10-20T05:04:13.372Z,60.91
2022-10-20T05:05:13.341Z,60.59
2022-10-20T05:06:13.331Z,61.23
2022-10-20T05:07:13.333Z,60.10
2022-10-20T05:08:13.324Z,62.68
2022-10-20T05:09:13.382Z,61.71
2022-10-20T05:10:13.291Z,61.23
2022-10-20T05:11:13.280Z,63.33
2022-10-20T05:13:13.278Z,60.91
2022-10-20T05:14:13.271Z,62.68
2022-10-20T05:15:13.265Z,63.65
2022-10-20T05:16:13.258Z,63.00
2022-10-20T05:17:13.274Z,63.97
2022-10-20T05:18:13.266Z,64.45
2022-10-20T05:19:13.241Z,63.81
2022-10-20T05:20:13.214Z,63.33
2022-10-20T05:21:13.203Z,63.49
2022-10-20T05:22:13.262Z,63.00
2022-10-20T05:23:13.192Z,62.04
2022-10-20T05:24:16.764Z,59.14
2022-10-20T05:25:37.324Z,63.49
2022-10-20T05:26:14.193Z,61.71
2022-10-20T05:27:13.190Z,65.74
2022-10-20T05:28:13.164Z,65.26
2022-10-20T05:29:13.183Z,65.42
2022-10-20T05:30:13.153Z,64.78
2022-10-20T05:31:13.145Z,63.16
2022-10-20T05:32:13.127Z,63.00
2022-10-20T05:33:13.122Z,60.42
2022-10-20T05:34:13.145Z,60.10
2022-10-20T05:35:13.117Z,59.94
2022-10-20T05:36:14.391Z,59.94
2022-10-20T05:37:13.082Z,64.13
2022-10-20T05:38:13.072Z,61.07
2022-10-20T05:39:13.114Z,61.71
2022-10-20T05:40:13.065Z,62.52
2022-10-20T05:41:13.059Z,64.94
2022-10-20T05:42:13.049Z,63.00
2022-10-20T05:43:14.118Z,62.04
2022-10-20T05:44:13.038Z,64.13
2022-10-20T05:45:13.058Z,65.74
2022-10-20T05:46:13.026Z,62.52
2022-10-20T05:47:13.015Z,62.36
2022-10-20T05:48:13.007Z,61.39
2022-10-20T05:49:13.001Z,63.16
2022-10-20T05:50:12.996Z,63.49
2022-10-20T05:51:14.856Z,60.26
2022-10-20T05:52:12.974Z,64.78
2022-10-20T05:53:12.960Z,62.04
2022-10-20T05:54:12.950Z,62.52
2022-10-20T05:55:12.968Z,64.45
2022-10-20T05:56:12.939Z,64.13
2022-10-20T05:57:12.956Z,63.81
2022-10-20T05:58:12.935Z,63.81
2022-10-20T05:59:12.952Z,65.10
2022-10-20T06:00:12.917Z,64.78
2022-10-20T06:01:12.960Z,64.29
2022-10-20T06:02:12.902Z,63.00
2022-10-20T06:03:16.141Z,62.68
2022-10-20T06:04:13.896Z,65.42
2022-10-20T06:05:12.864Z,63.16
2022-10-20T06:06:12.869Z,61.23
2022-10-20T06:07:12.846Z,63.49
2022-10-20T06:08:12.851Z,62.84
2022-10-20T06:09:12.833Z,63.49
2022-10-20T06:10:12.823Z,60.75
2022-10-20T06:11:12.827Z,60.59
2022-10-20T06:12:12.837Z,62.68
2022-10-20T06:13:12.844Z,63.97
2022-10-20T06:14:12.887Z,59.94
2022-10-20T06:15:12.787Z,62.68
2022-10-20T06:16:12.773Z,61.39
2022-10-20T06:17:12.768Z,63.81
2022-10-20T06:18:12.778Z,62.84
2022-10-20T06:19:12.751Z,66.06
2022-10-20T06:20:12.754Z,65.42
2022-10-20T06:21:12.742Z,63.81
2022-10-20T06:22:12.747Z,59.14
2022-10-20T06:23:12.726Z,64.45
2022-10-20T06:24:12.733Z,62.84
2022-10-20T06:25:12.709Z,65.74
2022-10-20T06:26:12.711Z,64.61
2022-10-20T06:27:12.690Z,64.78
2022-10-20T06:28:12.673Z,61.55
2022-10-20T06:29:12.693Z,63.00
2022-10-20T06:30:12.666Z,63.81
2022-10-20T06:31:12.671Z,62.04
2022-10-20T06:33:12.634Z,66.06
2022-10-20T06:34:12.664Z,65.58
2022-10-20T06:35:12.628Z,65.90
2022-10-20T06:36:12.621Z,66.39
2022-10-20T06:37:12.602Z,65.58
2022-10-20T06:38:12.641Z,62.68
2022-10-20T06:39:12.590Z,63.00
2022-10-20T06:40:12.607Z,64.78
2022-10-20T06:41:12.588Z,63.81
2022-10-20T06:42:12.570Z,59.94
2022-10-20T06:43:12.570Z,64.29
2022-10-20T06:44:12.613Z,60.42
2022-10-20T06:45:14.437Z,63.49
2022-10-20T06:46:12.537Z,63.65
2022-10-20T06:47:12.528Z,60.75
2022-10-20T06:48:12.524Z,63.49
2022-10-20T06:49:12.517Z,63.00
2022-10-20T06:50:12.528Z,62.84
2022-10-20T06:51:12.518Z,64.45
2022-10-20T06:52:12.500Z,61.39
2022-10-20T06:53:12.489Z,61.71
2022-10-20T06:54:12.482Z,63.49
2022-10-20T06:55:12.474Z,62.04
2022-10-20T06:56:12.460Z,62.68
2022-10-20T06:57:12.486Z,63.81
2022-10-20T06:58:12.448Z,61.55
2022-10-20T06:59:12.429Z,61.55
2022-10-20T07:00:14.418Z,64.29
2022-10-20T07:01:12.426Z,62.36
2022-10-20T07:02:14.504Z,63.65
2022-10-20T07:03:14.441Z,63.81
2022-10-20T07:04:13.339Z,63.97
2022-10-20T07:05:12.387Z,61.55
2022-10-20T07:06:12.373Z,62.36
2022-10-20T07:07:12.370Z,63.97
2022-10-20T07:08:12.385Z,62.84
2022-10-20T07:09:12.433Z,63.97
2022-10-20T07:10:12.455Z,63.65
2022-10-20T07:11:12.351Z,63.00
2022-10-20T07:12:12.332Z,63.16
2022-10-20T07:13:12.330Z,68.48
2022-10-20T07:14:12.335Z,61.71
2022-10-20T07:15:12.308Z,62.68
2022-10-20T07:16:12.296Z,61.71
2022-10-20T07:17:12.296Z,61.71
2022-10-20T07:18:12.293Z,62.68
2022-10-20T07:19:12.288Z,61.71
2022-10-20T07:20:12.320Z,63.33
2022-10-20T07:21:12.306Z,61.07
2022-10-20T07:22:12.299Z,62.68
2022-10-20T07:23:12.267Z,60.91
2022-10-20T07:24:12.256Z,60.10
2022-10-20T07:25:12.238Z,59.46
2022-10-20T07:26:12.242Z,58.17
2022-10-20T07:27:12.246Z,61.71
2022-10-20T07:28:12.256Z,58.33
2022-10-20T07:29:12.210Z,65.26
2022-10-20T07:30:12.188Z,57.20
2022-10-20T07:31:12.188Z,62.04
2022-10-20T07:32:12.171Z,60.26
2022-10-20T07:33:12.199Z,64.61
2022-10-20T07:34:27.955Z,59.94
2022-10-20T07:35:13.158Z,61.55
2022-10-20T07:36:12.145Z,57.36
2022-10-20T07:37:12.170Z,58.65
2022-10-20T07:38:12.249Z,58.01
2022-10-20T07:39:12.123Z,60.59
2022-10-20T07:40:12.154Z,56.07
2022-10-20T07:41:12.109Z,57.52
2022-10-20T07:42:12.090Z,56.88
2022-10-20T07:43:12.112Z,61.71
2022-10-20T07:44:12.092Z,59.46
2022-10-20T07:45:12.065Z,56.56
2022-10-20T07:46:12.056Z,56.40
2022-10-20T07:47:12.042Z,59.46
2022-10-20T07:48:12.039Z,57.85
2022-10-20T07:50:13.036Z,56.88
2022-10-20T07:51:12.062Z,56.07
2022-10-20T07:52:12.010Z,55.91
2022-10-20T07:53:12.011Z,62.68
2022-10-20T07:54:12.014Z,61.55
2022-10-20T07:55:32.204Z,55.11
2022-10-20T07:56:12.972Z,61.39
2022-10-20T07:57:11.966Z,54.79
2022-10-20T07:58:11.975Z,55.43
2022-10-20T07:59:11.942Z,58.17
2022-10-20T08:00:11.968Z,55.43
2022-10-20T08:01:11.931Z,53.50
2022-10-20T08:02:11.944Z,54.14
2022-10-20T08:03:11.908Z,58.17
2022-10-20T08:04:11.902Z,61.71
2022-10-20T08:05:11.919Z,60.10
2022-10-20T08:06:11.914Z,62.20
2022-10-20T08:07:11.885Z,59.14
2022-10-20T08:08:11.882Z,60.59
2022-10-20T08:09:11.943Z,60.91
2022-10-20T08:10:11.856Z,59.94
2022-10-20T08:11:11.876Z,59.62
2022-10-20T08:12:11.834Z,63.16
2022-10-20T08:13:11.853Z,58.17
2022-10-20T08:14:11.836Z,57.85
2022-10-20T08:15:11.825Z,57.20
2022-10-20T08:16:13.408Z,63.33
2022-10-20T08:17:11.832Z,59.78
2022-10-20T08:18:11.929Z,61.39
2022-10-20T08:19:14.910Z,59.78
2022-10-20T08:20:13.413Z,56.24
2022-10-20T08:21:11.768Z,58.01
2022-10-20T08:22:11.763Z,62.36
2022-10-20T08:23:11.881Z,62.84
2022-10-20T08:24:11.745Z,62.84
2022-10-20T08:25:11.752Z,60.10
2022-10-20T08:26:11.728Z,62.68
2022-10-20T08:27:11.711Z,65.74
2022-10-20T08:28:11.705Z,61.71
2022-10-20T08:29:11.718Z,60.59
2022-10-20T08:30:23.485Z,61.55
2022-10-20T08:31:12.686Z,63.00
2022-10-20T08:32:11.705Z,56.56
2022-10-20T08:33:11.697Z,55.59
2022-10-20T08:34:11.662Z,62.04
2022-10-20T08:35:11.654Z,60.10
2022-10-20T08:36:11.644Z,61.71
2022-10-20T08:37:11.653Z,58.49
2022-10-20T08:38:11.653Z,58.65
2022-10-20T08:39:11.667Z,59.94
2022-10-20T08:40:11.602Z,60.59
2022-10-20T08:41:11.602Z,59.46
2022-10-20T08:42:11.597Z,59.94
2022-10-20T08:43:11.590Z,62.68
2022-10-20T08:44:11.568Z,60.91
2022-10-20T08:45:11.590Z,63.16
2022-10-20T08:46:11.603Z,60.26
2022-10-20T08:47:11.553Z,59.62
2022-10-20T08:48:11.539Z,62.20
2022-10-20T08:49:11.575Z,57.36
2022-10-20T08:50:11.552Z,63.16
2022-10-20T08:51:11.612Z,58.33
2022-10-20T08:52:11.594Z,58.65
2022-10-20T08:53:11.520Z,59.14
2022-10-20T08:54:11.525Z,57.69
2022-10-20T08:55:11.529Z,58.01
2022-10-20T08:56:11.485Z,57.36
2022-10-20T08:57:11.465Z,58.33
2022-10-20T08:58:11.526Z,58.17
2022-10-20T08:59:11.446Z,55.59
2022-10-20T09:00:11.432Z,57.36
2022-10-20T09:01:11.451Z,55.75
2022-10-20T09:02:11.462Z,55.91
2022-10-20T09:03:11.425Z,55.91
2022-10-20T09:04:11.404Z,53.17
2022-10-20T09:05:13.993Z,55.27
2022-10-20T09:06:12.415Z,56.88
2022-10-20T09:07:11.388Z,56.88
2022-10-20T09:08:11.371Z,56.24
2022-10-20T09:09:11.579Z,58.49
2022-10-20T09:10:11.348Z,59.14
2022-10-20T09:11:11.390Z,60.75
2022-10-20T09:12:11.331Z,64.29
2022-10-20T09:13:11.324Z,58.65
2022-10-20T09:14:11.321Z,59.46
2022-10-20T09:15:11.300Z,59.46
2022-10-20T09:16:18.292Z,55.91
2022-10-20T09:17:12.318Z,61.07
2022-10-20T09:18:11.293Z,57.69
2022-10-20T09:19:11.286Z,62.20
2022-10-20T09:20:11.276Z,58.17
2022-10-20T09:21:11.262Z,56.07
2022-10-20T09:22:11.260Z,58.01
2022-10-20T09:23:28.302Z,58.01
2022-10-20T09:24:12.247Z,55.75
2022-10-20T09:25:11.231Z,57.20
2022-10-20T09:26:19.676Z,58.65
2022-10-20T09:27:12.206Z,54.79
2022-10-20T09:28:11.246Z,58.65
2022-10-20T09:29:13.812Z,58.01
2022-10-20T09:30:11.179Z,58.01
2022-10-20T09:31:11.176Z,58.17
2022-10-20T09:32:34.338Z,59.46
2022-10-20T09:33:12.192Z,55.75
2022-10-20T09:34:11.157Z,58.65
2022-10-20T09:35:11.155Z,56.24
2022-10-20T09:36:11.141Z,55.91
2022-10-20T09:37:11.132Z,55.59
2022-10-20T09:38:11.120Z,57.52
2022-10-20T09:39:11.130Z,59.94
2022-10-20T09:40:11.127Z,59.78
2022-10-20T09:41:11.139Z,62.20
2022-10-20T09:42:11.087Z,60.10
2022-10-20T09:43:11.098Z,58.17
2022-10-20T09:44:11.090Z,59.14
2022-10-20T09:45:11.056Z,56.24
2022-10-20T09:46:11.118Z,56.72
2022-10-20T09:47:11.047Z,57.52
2022-10-20T09:48:11.033Z,59.62
2022-10-20T09:49:11.077Z,59.30
2022-10-20T09:50:11.093Z,57.36
2022-10-20T09:51:11.012Z,56.72
2022-10-20T09:52:11.028Z,59.94
2022-10-20T09:53:10.997Z,60.91
2022-10-20T09:54:10.989Z,55.43
2022-10-20T09:55:10.984Z,59.94
2022-10-20T09:56:10.971Z,61.07
2022-10-20T09:57:10.966Z,60.91
2022-10-20T09:58:12.849Z,59.62
2022-10-20T09:59:11.929Z,58.17
2022-10-20T10:00:25.506Z,56.07
2022-10-20T10:01:12.015Z,58.17
2022-10-20T10:02:11.143Z,60.10
2022-10-20T10:03:10.905Z,60.42
2022-10-20T10:04:11.115Z,58.33
2022-10-20T10:05:10.888Z,58.97
2022-10-20T10:06:10.909Z,59.62
2022-10-20T10:07:10.888Z,59.14
2022-10-20T10:08:10.905Z,57.04
2022-10-20T10:09:10.950Z,58.33
2022-10-20T10:10:10.857Z,60.75
2022-10-20T10:11:10.836Z,61.39
2022-10-20T10:12:10.846Z,58.01
2022-10-20T10:13:10.882Z,60.59
2022-10-20T10:14:10.811Z,58.01
2022-10-20T10:15:10.809Z,59.94
2022-10-20T10:16:10.802Z,53.82
2022-10-20T10:17:10.800Z,60.91
2022-10-20T10:18:10.787Z,59.78
2022-10-20T10:19:10.833Z,59.62
2022-10-20T10:20:10.769Z,60.10
2022-10-20T10:21:10.744Z,59.46
2022-10-20T10:22:10.761Z,59.78
2022-10-20T10:23:10.787Z,59.62
2022-10-20T10:24:10.723Z,61.23
2022-10-20T10:25:10.735Z,55.11
2022-10-20T10:26:10.707Z,54.46
2022-10-20T10:27:10.698Z,59.14
2022-10-20T10:28:10.688Z,61.71
2022-10-20T10:29:10.691Z,58.17
2022-10-20T10:30:10.758Z,57.36
2022-10-20T10:31:10.669Z,60.26
2022-10-20T10:32:10.660Z,57.04
2022-10-20T10:33:10.653Z,59.46
2022-10-20T10:34:10.637Z,56.88
2022-10-20T10:35:10.627Z,56.72
2022-10-20T10:36:10.647Z,54.95
2022-10-20T10:37:10.741Z,55.43
2022-10-20T10:38:10.604Z,56.24
2022-10-20T10:39:10.603Z,59.94
2022-10-20T10:40:10.586Z,61.07
2022-10-20T10:41:10.621Z,58.01
2022-10-20T10:42:10.580Z,58.65
2022-10-20T10:43:10.569Z,56.40
2022-10-20T10:44:10.564Z,57.36
2022-10-20T10:45:10.551Z,60.26
2022-10-20T10:46:10.552Z,58.65
2022-10-20T10:47:10.556Z,55.43
2022-10-20T10:48:10.563Z,53.98
2022-10-20T10:49:10.520Z,58.65
2022-10-20T10:50:10.538Z,54.14
2022-10-20T10:51:10.499Z,60.42
2022-10-20T10:52:10.520Z,57.85
2022-10-20T10:53:10.533Z,52.53
2022-10-20T10:54:11.964Z,53.17
2022-10-20T10:55:11.884Z,57.36
2022-10-20T10:56:10.461Z,60.26
2022-10-20T10:57:12.548Z,55.91
2022-10-20T10:58:10.514Z,56.56
2022-10-20T10:59:10.427Z,59.46
2022-10-20T11:00:10.430Z,59.94
2022-10-20T11:01:10.477Z,53.33
2022-10-20T11:02:10.427Z,52.53
2022-10-20T11:03:10.403Z,52.53
2022-10-20T11:04:10.422Z,56.24
2022-10-20T11:05:10.538Z,54.30
2022-10-20T11:06:10.721Z,56.88
2022-10-20T11:07:10.386Z,52.69
2022-10-20T11:08:10.409Z,57.04
2022-10-20T11:09:10.353Z,56.56
2022-10-20T11:10:10.338Z,54.14
2022-10-20T11:11:10.476Z,53.50
2022-10-20T11:12:10.357Z,58.17
2022-10-20T11:13:10.353Z,56.88
2022-10-20T11:14:10.374Z,55.91
2022-10-20T11:15:10.355Z,58.97
2022-10-20T11:16:10.301Z,58.97
2022-10-20T11:17:10.315Z,56.72
2022-10-20T11:18:10.286Z,57.20
2022-10-20T11:19:10.298Z,58.65
2022-10-20T11:20:10.297Z,60.10
2022-10-20T11:21:10.257Z,55.75
2022-10-20T11:22:13.381Z,54.30
2022-10-20T11:23:10.362Z,58.97
2022-10-20T11:24:10.281Z,50.76
2022-10-20T11:25:10.246Z,59.30
2022-10-20T11:26:10.457Z,57.36
2022-10-20T11:27:10.206Z,59.14
2022-10-20T11:28:10.217Z,57.04
2022-10-20T11:29:10.198Z,56.88
2022-10-20T11:30:10.220Z,58.17
2022-10-20T11:31:10.192Z,58.81
2022-10-20T11:32:10.286Z,55.11
2022-10-20T11:33:10.961Z,54.62
2022-10-20T11:34:10.156Z,53.66
2022-10-20T11:35:10.148Z,53.50
2022-10-20T11:36:10.213Z,53.33
2022-10-20T11:37:10.133Z,56.24
2022-10-20T11:38:10.130Z,56.24
2022-10-20T11:39:10.136Z,55.27
2022-10-20T11:40:10.114Z,56.56
2022-10-20T11:41:10.102Z,56.40
2022-10-20T11:42:10.089Z,58.81
2022-10-20T11:43:11.126Z,54.14
2022-10-20T11:44:10.110Z,54.14
2022-10-20T11:45:10.136Z,56.88
2022-10-20T11:46:10.063Z,58.01
2022-10-20T11:47:10.053Z,52.37
2022-10-20T11:48:10.033Z,48.98
2022-10-20T11:49:10.037Z,54.30
2022-10-20T11:50:10.030Z,53.98
2022-10-20T11:51:10.002Z,53.33
2022-10-20T11:52:09.998Z,53.50
2022-10-20T11:53:10.022Z,58.17
2022-10-20T11:54:10.010Z,59.14
2022-10-20T11:55:09.994Z,55.43
2022-10-20T11:56:09.989Z,59.30
2022-10-20T11:57:09.962Z,58.17
2022-10-20T11:58:11.704Z,54.95
2022-10-20T11:59:09.991Z,57.52
2022-10-20T12:00:09.985Z,56.56
2022-10-20T12:01:09.954Z,58.33
2022-10-20T12:02:10.087Z,56.56
2022-10-20T12:03:09.918Z,58.01
2022-10-20T12:04:09.903Z,53.66
2022-10-20T12:05:09.885Z,57.04
2022-10-20T12:06:10.344Z,57.20
2022-10-20T12:07:09.889Z,56.24
2022-10-20T12:08:28.747Z,58.97
2022-10-20T12:09:10.920Z,54.95
2022-10-20T12:10:10.495Z,59.94
2022-10-20T12:11:09.839Z,58.17
2022-10-20T12:12:09.835Z,56.88
2022-10-20T12:13:09.830Z,59.78
2022-10-20T12:14:10.077Z,58.17
2022-10-20T12:15:09.813Z,56.88
2022-10-20T12:16:09.806Z,56.07
2022-10-20T12:17:09.787Z,57.69
2022-10-20T12:18:09.876Z,57.36
2022-10-20T12:19:09.782Z,56.88
2022-10-20T12:20:09.915Z,58.01
2022-10-20T12:21:09.799Z,57.85
2022-10-20T12:22:09.748Z,59.62
2022-10-20T12:23:09.840Z,58.33
2022-10-20T12:24:09.749Z,54.95
2022-10-20T12:25:09.750Z,58.01
2022-10-20T12:26:09.769Z,55.43
2022-10-20T12:27:09.714Z,58.81
2022-10-20T12:28:09.709Z,55.59
2022-10-20T12:29:09.704Z,59.46
2022-10-20T12:30:09.777Z,60.26
2022-10-20T12:31:09.684Z,59.46
2022-10-20T12:32:10.154Z,58.81
2022-10-20T12:33:09.665Z,57.36
2022-10-20T12:34:09.688Z,59.62
2022-10-20T12:35:09.671Z,57.52
2022-10-20T12:36:09.729Z,57.36
2022-10-20T12:37:09.645Z,60.59
2022-10-20T12:38:09.631Z,58.49
2022-10-20T12:39:09.621Z,58.81
2022-10-20T12:40:09.654Z,59.14
2022-10-20T12:41:09.629Z,57.20
2022-10-20T12:42:09.593Z,59.46
2022-10-20T12:43:09.651Z,57.85
2022-10-20T12:44:09.572Z,62.36
2022-10-20T12:45:09.570Z,60.26
2022-10-20T12:46:09.649Z,56.40
2022-10-20T12:47:09.569Z,58.01
2022-10-20T12:48:09.548Z,55.91
2022-10-20T12:49:11.928Z,59.62
2022-10-20T12:50:09.626Z,61.39
2022-10-20T12:51:09.562Z,56.72
2022-10-20T12:52:09.600Z,59.30
2022-10-20T12:53:09.510Z,59.46
2022-10-20T12:54:09.525Z,61.39
2022-10-20T12:55:09.501Z,58.01
2022-10-20T12:56:09.498Z,56.72
2022-10-20T12:57:09.485Z,56.72
2022-10-20T12:58:09.486Z,56.40